createdAt,value
2019-05-17T00:01:39.894Z,100.00
2019-05-17T00:04:48.755Z,99.84
2019-05-17T00:07:56.664Z,100.00
2019-05-17T00:11:06.703Z,100.00
2019-05-17T00:14:12.861Z,100.00
2019-05-17T00:17:19.470Z,100.00
2019-05-17T00:20:26.953Z,100.00
2019-05-17T00:23:33.853Z,100.00
2019-05-17T00:26:40.431Z,100.00
2019-05-17T00:29:49.665Z,98.50
2019-05-17T00:32:56.907Z,96.94
2019-05-17T00:36:03.668Z,97.82
2019-05-17T00:39:10.195Z,98.95
2019-05-17T00:42:17.318Z,100.00
2019-05-17T00:45:23.883Z,100.00
2019-05-17T00:48:30.503Z,99.04
2019-05-17T00:51:37.073Z,100.00
2019-05-17T00:54:43.560Z,100.00
2019-05-17T00:57:52.871Z,100.00
2019-05-17T01:00:59.371Z,100.00
2019-05-17T01:04:06.815Z,99.65
2019-05-17T01:07:13.613Z,100.00
2019-05-17T01:10:20.331Z,100.00
2019-05-17T01:13:26.981Z,100.00
2019-05-17T01:16:33.590Z,100.00
2019-05-17T01:19:41.950Z,100.00
2019-05-17T01:22:48.862Z,100.00
2019-05-17T01:25:56.991Z,99.43
2019-05-17T01:29:03.660Z,100.00
2019-05-17T01:32:10.272Z,100.00
2019-05-17T01:35:17.184Z,100.00
2019-05-17T01:38:26.965Z,100.00
2019-05-17T01:41:33.675Z,99.78
2019-05-17T01:44:42.960Z,97.62
2019-05-17T01:47:51.153Z,98.80
2019-05-17T01:50:59.508Z,98.21
2019-05-17T01:54:06.819Z,98.44
2019-05-17T01:57:17.008Z,97.57
2019-05-17T02:00:26.423Z,97.28
2019-05-17T02:03:32.370Z,97.61
2019-05-17T02:06:38.840Z,97.12
2019-05-17T02:09:47.725Z,97.70
2019-05-17T02:12:54.287Z,97.77
2019-05-17T02:16:00.808Z,97.82
2019-05-17T02:19:09.104Z,98.13
2019-05-17T02:22:16.753Z,97.63
2019-05-17T02:25:23.688Z,98.24
2019-05-17T02:28:32.123Z,98.21
2019-05-17T02:31:39.207Z,97.40
2019-05-17T02:34:48.466Z,97.67
2019-05-17T02:37:54.938Z,98.40
2019-05-17T02:41:03.293Z,98.19
2019-05-17T02:44:13.004Z,98.36
2019-05-17T02:47:22.944Z,98.87
2019-05-17T02:50:28.005Z,97.76
2019-05-17T02:53:35.022Z,98.18
2019-05-17T02:56:43.542Z,98.18
2019-05-17T02:59:52.569Z,100.00
2019-05-17T03:02:58.140Z,98.79
2019-05-17T03:06:04.814Z,98.41
2019-05-17T03:09:13.723Z,97.75
2019-05-17T03:12:23.440Z,98.29
2019-05-17T03:15:32.181Z,98.55
2019-05-17T03:18:37.976Z,98.53
2019-05-17T03:21:45.275Z,97.18
2019-05-17T03:24:53.332Z,97.65
2019-05-17T03:28:02.900Z,99.93
2019-05-17T03:31:09.597Z,99.04
2019-05-17T03:34:17.912Z,99.66
2019-05-17T03:37:30.121Z,99.30
2019-05-17T03:41:01.001Z,100.00
2019-05-17T03:43:44.265Z,99.84
2019-05-17T03:46:53.224Z,99.71
2019-05-17T03:50:03.049Z,100.00
2019-05-17T03:53:13.160Z,100.00
2019-05-17T03:56:18.803Z,100.00
2019-05-17T03:59:25.830Z,99.97
2019-05-17T04:02:32.784Z,100.00
2019-05-17T04:05:42.626Z,99.68
2019-05-17T04:08:52.635Z,100.00
2019-05-17T04:11:57.915Z,98.80
2019-05-17T04:15:04.959Z,98.37
2019-05-17T04:18:12.991Z,99.93
2019-05-17T04:21:23.159Z,100.00
2019-05-17T04:24:28.382Z,99.01
2019-05-17T04:27:34.903Z,98.82
2019-05-17T04:30:43.305Z,99.89
2019-05-17T04:33:53.355Z,99.76
2019-05-17T04:36:58.736Z,99.62
2019-05-17T04:40:05.759Z,100.00
2019-05-17T04:43:13.686Z,100.00
2019-05-17T04:46:23.524Z,99.80
2019-05-17T04:49:29.159Z,100.00
2019-05-17T04:52:35.828Z,99.85
2019-05-17T04:55:43.068Z,99.57
2019-05-17T04:58:54.139Z,100.00
2019-05-17T05:02:02.690Z,100.00
2019-05-17T05:05:08.124Z,100.00
2019-05-17T05:08:14.742Z,100.00
2019-05-17T05:11:23.291Z,100.00
2019-05-17T05:14:32.620Z,99.92
2019-05-17T05:17:37.962Z,100.00
2019-05-17T05:20:45.928Z,100.00
2019-05-17T05:23:52.457Z,99.54
2019-05-17T05:26:58.881Z,100.00
2019-05-17T05:30:05.983Z,99.77
2019-05-17T05:33:13.133Z,99.70
2019-05-17T05:36:22.066Z,100.00
2019-05-17T05:39:28.501Z,99.56
2019-05-17T05:42:35.046Z,99.67
2019-05-17T05:45:41.971Z,99.26
2019-05-17T05:48:48.598Z,99.21
2019-05-17T05:51:55.102Z,98.29
2019-05-17T05:55:02.202Z,97.25
2019-05-17T05:58:08.590Z,97.63
2019-05-17T06:01:15.185Z,96.97
2019-05-17T06:04:22.377Z,96.41
2019-05-17T06:07:29.054Z,95.76
2019-05-17T06:10:35.569Z,95.66
2019-05-17T06:13:42.211Z,96.45
2019-05-17T06:16:48.782Z,96.63
2019-05-17T06:19:55.526Z,94.99
2019-05-17T06:23:02.538Z,95.11
2019-05-17T06:26:12.160Z,94.83
2019-05-17T06:29:17.589Z,94.42
2019-05-17T06:32:24.102Z,92.51
2019-05-17T06:35:32.516Z,93.93
2019-05-17T06:38:39.124Z,93.92
2019-05-17T06:41:46.044Z,93.05
2019-05-17T06:44:53.881Z,92.44
2019-05-17T06:48:02.336Z,92.25
2019-05-17T06:51:11.903Z,91.31
2019-05-17T06:54:18.581Z,90.94
2019-05-17T06:57:25.637Z,91.71
2019-05-17T07:00:32.421Z,91.75
2019-05-17T07:03:39.949Z,90.23
2019-05-17T07:07:10.645Z,89.96
2019-05-17T07:10:19.457Z,90.13
2019-05-17T07:13:25.716Z,89.65
2019-05-17T07:16:32.194Z,90.16
2019-05-17T07:19:40.085Z,89.42
2019-05-17T07:22:50.715Z,90.31
2019-05-17T07:25:59.460Z,88.88
2019-05-17T07:29:06.136Z,87.98
2019-05-17T07:32:13.920Z,87.15
2019-05-17T07:35:20.865Z,88.23
2019-05-17T07:38:27.339Z,86.37
2019-05-17T07:41:33.932Z,85.95
2019-05-17T07:44:40.778Z,87.34
2019-05-17T07:47:49.479Z,85.87
2019-05-17T07:50:56.367Z,86.34
2019-05-17T07:54:02.891Z,86.06
2019-05-17T07:57:10.378Z,86.23
2019-05-17T08:00:20.147Z,83.52
2019-05-17T08:03:26.980Z,83.38
2019-05-17T08:06:33.554Z,85.28
2019-05-17T08:09:43.209Z,84.90
2019-05-17T08:12:54.160Z,84.88
2019-05-17T08:16:00.674Z,85.85
2019-05-17T08:19:10.305Z,83.94
2019-05-17T08:22:21.014Z,83.02
2019-05-17T08:25:27.577Z,82.36
2019-05-17T08:28:34.557Z,82.41
2019-05-17T08:31:46.081Z,83.42
2019-05-17T08:34:51.954Z,80.77
2019-05-17T08:38:01.232Z,81.18
2019-05-17T08:41:10.326Z,80.40
2019-05-17T08:44:19.246Z,77.58
2019-05-17T08:47:25.878Z,77.61
2019-05-17T08:50:35.270Z,75.86
2019-05-17T08:53:41.670Z,75.49
2019-05-17T08:56:50.371Z,73.69
2019-05-17T08:59:56.563Z,71.02
2019-05-17T09:03:03.568Z,72.03
2019-05-17T09:06:12.370Z,74.69
2019-05-17T09:09:20.360Z,74.93
2019-05-17T09:12:26.634Z,74.78
2019-05-17T09:15:33.112Z,71.45
2019-05-17T09:18:39.714Z,73.47
2019-05-17T09:21:50.300Z,72.88
2019-05-17T09:25:00.069Z,73.54
2019-05-17T09:28:06.799Z,73.71
2019-05-17T09:31:13.403Z,73.98
2019-05-17T09:34:20.339Z,73.02
2019-05-17T09:37:30.317Z,71.91
2019-05-17T09:40:36.234Z,69.36
2019-05-17T09:43:42.875Z,70.74
2019-05-17T09:46:50.410Z,69.27
2019-05-17T09:49:57.418Z,68.62
2019-05-17T09:53:04.071Z,67.91
2019-05-17T09:56:10.703Z,68.35
2019-05-17T09:59:17.248Z,68.67
2019-05-17T10:02:25.209Z,66.26
2019-05-17T10:05:32.632Z,65.05
2019-05-17T10:08:39.476Z,66.75
2019-05-17T10:11:49.288Z,67.75
2019-05-17T10:14:56.164Z,68.77
2019-05-17T10:18:04.235Z,70.10
2019-05-17T10:21:11.159Z,69.80
2019-05-17T10:24:19.906Z,68.09
2019-05-17T10:27:25.871Z,66.82
2019-05-17T10:30:32.458Z,69.32
2019-05-17T10:33:40.118Z,68.62
2019-05-17T10:36:50.670Z,67.95
2019-05-17T10:40:00.192Z,69.31
2019-05-17T10:43:06.798Z,68.39
2019-05-17T10:46:13.442Z,70.46
2019-05-17T10:49:20.355Z,69.57
2019-05-17T10:52:26.853Z,70.11
2019-05-17T10:55:33.613Z,69.61
2019-05-17T10:58:40.134Z,67.95
2019-05-17T11:01:50.147Z,67.50
2019-05-17T11:04:56.543Z,68.46
2019-05-17T11:08:03.409Z,68.60
2019-05-17T11:11:12.336Z,67.70
2019-05-17T11:14:18.799Z,66.99
2019-05-17T11:17:25.383Z,66.81
2019-05-17T11:20:31.944Z,68.15
2019-05-17T11:23:38.412Z,67.72
2019-05-17T11:26:47.173Z,67.21
2019-05-17T11:29:53.662Z,67.88
2019-05-17T11:33:01.337Z,63.85
2019-05-17T11:36:07.900Z,66.19
2019-05-17T11:39:14.333Z,67.70
2019-05-17T11:42:20.969Z,67.01
2019-05-17T11:45:31.868Z,67.28
2019-05-17T11:48:35.679Z,65.81
2019-05-17T11:51:42.188Z,66.87
2019-05-17T11:54:48.639Z,66.66
2019-05-17T11:57:57.473Z,66.04
2019-05-17T12:01:04.143Z,66.25
2019-05-17T12:04:10.735Z,63.99
2019-05-17T12:07:17.489Z,64.56
2019-05-17T12:10:24.288Z,64.06
2019-05-17T12:13:30.858Z,63.24
2019-05-17T12:16:37.464Z,63.42
2019-05-17T12:19:46.284Z,65.16
2019-05-17T12:22:52.942Z,62.91
2019-05-17T12:25:59.318Z,64.35
2019-05-17T12:29:05.939Z,64.90
2019-05-17T12:32:16.858Z,63.06
2019-05-17T12:35:20.237Z,63.22
2019-05-17T12:38:26.728Z,64.05
2019-05-17T12:41:33.307Z,63.33
2019-05-17T12:44:40.039Z,65.58
2019-05-17T12:47:48.787Z,64.38
2019-05-17T12:50:55.405Z,62.45
2019-05-17T12:54:01.878Z,64.54
2019-05-17T12:57:08.335Z,63.54
2019-05-17T13:00:15.446Z,63.21
2019-05-17T13:03:21.881Z,62.93
2019-05-17T13:06:28.335Z,61.05
2019-05-17T13:09:34.929Z,60.43
2019-05-17T13:12:41.764Z,59.18
2019-05-17T13:15:48.410Z,61.53
2019-05-17T13:18:54.909Z,60.60
2019-05-17T13:22:01.689Z,62.92
2019-05-17T13:25:09.063Z,64.41
2019-05-17T13:28:16.505Z,63.32
2019-05-17T13:31:23.139Z,57.62
2019-05-17T13:34:29.739Z,58.30
2019-05-17T13:37:38.813Z,60.53
2019-05-17T13:40:45.740Z,57.15
2019-05-17T13:43:52.464Z,58.61
2019-05-17T13:47:01.002Z,54.83
2019-05-17T13:50:08.436Z,55.69
2019-05-17T13:53:18.361Z,57.38
2019-05-17T13:56:24.867Z,55.15
2019-05-17T13:59:31.421Z,59.09
2019-05-17T14:02:38.101Z,60.97
2019-05-17T14:05:44.598Z,60.92
2019-05-17T14:08:51.146Z,61.33
2019-05-17T14:11:57.774Z,61.42
2019-05-17T14:15:06.164Z,61.87
2019-05-17T14:18:15.299Z,62.76
2019-05-17T14:21:21.947Z,61.02
2019-05-17T14:24:28.577Z,59.95
2019-05-17T14:27:35.143Z,61.34
2019-05-17T14:30:41.652Z,59.66
2019-05-17T14:33:48.469Z,59.78
2019-05-17T14:36:54.936Z,59.31
2019-05-17T14:40:01.437Z,60.10
2019-05-17T14:43:08.045Z,58.29
2019-05-17T14:46:14.704Z,59.08
2019-05-17T14:49:21.583Z,60.89
2019-05-17T14:52:28.965Z,59.32
2019-05-17T14:55:35.532Z,59.08
2019-05-17T14:58:42.137Z,60.19
2019-05-17T15:01:48.824Z,59.66
2019-05-17T15:04:55.351Z,59.42
2019-05-17T15:08:01.828Z,58.54
2019-05-17T15:11:08.403Z,58.08
2019-05-17T15:14:14.880Z,59.55
2019-05-17T15:17:21.585Z,56.58
2019-05-17T15:20:28.021Z,59.49
2019-05-17T15:23:34.584Z,59.77
2019-05-17T15:26:41.278Z,57.94
2019-05-17T15:29:48.263Z,57.25
2019-05-17T15:32:54.715Z,58.96
2019-05-17T15:36:01.341Z,57.71
2019-05-17T15:39:08.069Z,58.75
2019-05-17T15:42:14.610Z,59.67
2019-05-17T15:45:21.227Z,60.95
2019-05-17T15:48:27.698Z,58.86
2019-05-17T15:51:34.218Z,58.94
2019-05-17T15:54:42.464Z,60.20
2019-05-17T15:57:50.582Z,58.93
2019-05-17T16:00:57.100Z,59.28
2019-05-17T16:04:04.155Z,59.11
2019-05-17T16:07:10.732Z,59.93
2019-05-17T16:10:18.947Z,57.74
2019-05-17T16:13:25.471Z,58.20
2019-05-17T16:16:32.086Z,59.58
2019-05-17T16:19:38.842Z,58.25
2019-05-17T16:22:46.132Z,58.62
2019-05-17T16:25:52.745Z,57.52
2019-05-17T16:28:59.274Z,57.47
2019-05-17T16:32:05.979Z,58.50
2019-05-17T16:35:13.248Z,59.13
2019-05-17T16:38:20.237Z,59.97
2019-05-17T16:41:26.746Z,57.96
2019-05-17T16:44:33.633Z,59.16
2019-05-17T16:47:40.226Z,58.40
2019-05-17T16:50:47.155Z,58.68
2019-05-17T16:53:55.826Z,59.40
2019-05-17T16:57:02.419Z,59.62
2019-05-17T17:00:30.903Z,59.18
2019-05-17T17:03:44.257Z,59.53
2019-05-17T17:06:48.130Z,59.93
2019-05-17T17:09:55.762Z,60.20
2019-05-17T17:13:02.414Z,61.85
2019-05-17T17:16:09.236Z,61.25
2019-05-17T17:19:15.916Z,61.76
2019-05-17T17:22:22.784Z,62.27
2019-05-17T17:25:29.868Z,62.79
2019-05-17T17:28:36.404Z,60.54
2019-05-17T17:31:42.935Z,60.31
2019-05-17T17:34:49.672Z,61.73
2019-05-17T17:37:57.208Z,62.64
2019-05-17T17:41:03.754Z,62.23
2019-05-17T17:44:10.484Z,62.71
2019-05-17T17:47:16.992Z,63.44
2019-05-17T17:50:23.613Z,64.64
2019-05-17T17:53:30.220Z,64.49
2019-05-17T17:56:36.816Z,63.38
2019-05-17T17:59:45.667Z,64.21
2019-05-17T18:02:52.263Z,63.50
2019-05-17T18:05:58.827Z,64.62
2019-05-17T18:09:06.222Z,64.07
2019-05-17T18:12:12.959Z,62.85
2019-05-17T18:15:22.493Z,64.15
2019-05-17T18:18:29.257Z,63.19
2019-05-17T18:21:35.754Z,64.78
2019-05-17T18:24:42.494Z,64.84
2019-05-17T18:27:50.593Z,65.66
2019-05-17T18:30:57.244Z,64.93
2019-05-17T18:34:03.787Z,65.26
2019-05-17T18:37:10.285Z,65.79
2019-05-17T18:40:16.983Z,66.70
2019-05-17T18:43:26.239Z,67.13
2019-05-17T18:46:32.873Z,67.95
2019-05-17T18:49:39.428Z,68.54
2019-05-17T18:52:49.064Z,69.43
2019-05-17T18:55:55.752Z,74.77
2019-05-17T18:59:02.238Z,77.25
2019-05-17T19:02:08.768Z,75.80
2019-05-17T19:05:16.616Z,77.07
2019-05-17T19:08:23.460Z,74.32
2019-05-17T19:11:30.389Z,73.47
2019-05-17T19:14:42.823Z,73.25
2019-05-17T19:17:48.924Z,74.12
2019-05-17T19:20:55.573Z,74.28
2019-05-17T19:24:02.441Z,74.42
2019-05-17T19:27:10.221Z,76.50
2019-05-17T19:30:18.834Z,77.70
2019-05-17T19:33:26.319Z,79.15
2019-05-17T19:36:32.890Z,79.85
2019-05-17T19:39:39.321Z,78.89
2019-05-17T19:42:48.957Z,78.66
2019-05-17T19:45:55.512Z,77.90
2019-05-17T19:49:02.177Z,77.49
2019-05-17T19:52:08.741Z,79.37
2019-05-17T19:55:17.009Z,79.58
2019-05-17T19:58:23.431Z,77.67
2019-05-17T20:01:30.944Z,76.78
2019-05-17T20:04:37.445Z,77.96
2019-05-17T20:07:44.242Z,78.47
2019-05-17T20:10:52.629Z,79.93
2019-05-17T20:13:59.076Z,78.30
2019-05-17T20:17:05.552Z,78.25
2019-05-17T20:20:12.536Z,78.62
2019-05-17T20:23:20.186Z,78.86
2019-05-17T20:26:26.630Z,77.41
2019-05-17T20:29:33.597Z,78.89
2019-05-17T20:32:40.114Z,78.00
2019-05-17T20:35:49.566Z,77.80
2019-05-17T20:38:56.104Z,77.85
2019-05-17T20:42:02.568Z,78.09
2019-05-17T20:45:13.281Z,80.11
2019-05-17T20:48:20.285Z,82.77
2019-05-17T20:51:26.888Z,79.37
2019-05-17T20:54:35.758Z,80.98
2019-05-17T20:57:42.206Z,78.73
2019-05-17T21:00:50.430Z,78.50
2019-05-17T21:03:56.861Z,79.76
2019-05-17T21:07:03.267Z,83.05
2019-05-17T21:10:10.045Z,82.12
2019-05-17T21:13:16.512Z,86.41
2019-05-17T21:16:23.105Z,84.12
2019-05-17T21:19:29.705Z,85.02
2019-05-17T21:22:37.309Z,84.89
2019-05-17T21:25:45.114Z,87.25
2019-05-17T21:28:51.554Z,85.59
2019-05-17T21:31:59.195Z,87.74
2019-05-17T21:35:06.209Z,88.11
2019-05-17T21:38:12.770Z,87.04
2019-05-17T21:41:19.193Z,87.89
2019-05-17T21:44:25.839Z,89.33
2019-05-17T21:47:32.280Z,88.31
2019-05-17T21:50:39.247Z,90.86
2019-05-17T21:53:49.559Z,88.25
2019-05-17T21:56:56.031Z,88.10
2019-05-17T22:00:02.647Z,91.35
2019-05-17T22:03:10.732Z,88.58
2019-05-17T22:06:17.508Z,90.78
2019-05-17T22:09:24.058Z,89.18
2019-05-17T22:12:30.530Z,88.48
2019-05-17T22:15:37.043Z,88.51
2019-05-17T22:18:44.400Z,94.52
2019-05-17T22:21:50.894Z,94.37
2019-05-17T22:24:58.508Z,88.06
2019-05-17T22:28:04.972Z,88.00
2019-05-17T22:31:11.484Z,87.77
2019-05-17T22:34:19.519Z,90.61
2019-05-17T22:37:25.912Z,86.66
2019-05-17T22:40:32.386Z,90.32
2019-05-17T22:43:41.772Z,89.85
2019-05-17T22:46:48.225Z,91.65
2019-05-17T22:49:54.721Z,90.59
2019-05-17T22:53:01.702Z,92.87
2019-05-17T22:56:09.396Z,94.09
2019-05-17T22:59:16.024Z,93.42
2019-05-17T23:02:22.500Z,91.21
2019-05-17T23:05:28.998Z,92.04
2019-05-17T23:08:35.563Z,91.27
2019-05-17T23:11:42.042Z,92.82
2019-05-17T23:14:50.136Z,90.31
2019-05-17T23:17:56.820Z,91.83
2019-05-17T23:21:05.240Z,91.17
2019-05-17T23:24:11.784Z,92.86
2019-05-17T23:27:18.137Z,90.96
2019-05-17T23:30:24.609Z,92.03
2019-05-17T23:33:31.252Z,93.77
2019-05-17T23:36:38.735Z,92.17
2019-05-17T23:39:45.587Z,90.92
2019-05-17T23:42:52.017Z,92.83
2019-05-17T23:45:58.441Z,92.77
2019-05-17T23:49:05.012Z,93.63
2019-05-17T23:52:11.656Z,91.92
2019-05-17T23:55:19.153Z,93.15
2019-05-17T23:58:25.626Z,93.83
